X  Cerrar Datos meteorológicos de aviación METAR        LELL Aeropuerto Sabadell
Temperatura
22°C Temperatura
11°C Punto de rocío
50% Humedad



Viento
11 KM/H
7 MPH
3 M/S
6 NUDO



190°
S
Condiciones actuales

Mostly Sunny Mayormente soleado
Presión 1019 (hPa) - 30.09 (inHg)
Visibilidad 6 (milla) - 10 (km)
Aeropuerto
Código de aeropuerto LELL

localidad: Aeropuerto Sabadell
Distancia: 27 (km)

Metar:
METAR LELL 131100Z 19006KT 140V270 9999 FEW035 22/11 Q1020

Hora: 13-06-2024 13:00 CEST